Time;durP1;ratioP1;P1;durP2;ratioP2;P2;SDS_P1;SDS_P2;PMS_P1;PMS_P2;Temp;Humidity;BMP_temperature;BMP_pressure;BME280_temperature;BME280_humidity;BME280_pressure;Samples;Min_cycle;Max_cycle;Signal;HPM_P1;HPM_P2
2022/07/31 00:01:56;;;;;;;3.05;2.53;;;18.20;62.20;;;;;;612990;235;26636;-69
2022/07/31 00:04:24;;;;;;;4.97;3.28;;;18.20;61.50;;;;;;612802;232;26661;-69
2022/07/31 00:06:51;;;;;;;12.52;3.53;;;18.20;62.00;;;;;;612854;235;26837;-67
2022/07/31 00:09:18;;;;;;;4.53;2.90;;;18.10;62.50;;;;;;612832;235;26653;-68
2022/07/31 00:11:45;;;;;;;5.25;3.10;;;18.10;63.20;;;;;;612768;235;26860;-69
2022/07/31 00:14:12;;;;;;;5.90;3.42;;;18.10;62.60;;;;;;612819;234;26680;-69
2022/07/31 00:16:39;;;;;;;7.12;3.25;;;18.10;63.10;;;;;;612863;235;26841;-69
2022/07/31 00:19:07;;;;;;;9.85;3.15;;;18.00;63.60;;;;;;612775;235;26648;-69
2022/07/31 00:21:36;;;;;;;6.18;3.10;;;18.00;63.60;;;;;;612487;235;26625;-69
2022/07/31 00:24:03;;;;;;;5.03;2.92;;;17.90;63.50;;;;;;612571;235;26591;-69
2022/07/31 00:26:30;;;;;;;5.65;3.17;;;17.90;64.30;;;;;;612579;235;26588;-69
2022/07/31 00:28:58;;;;;;;5.45;2.65;;;17.90;65.10;;;;;;612494;235;26833;-69
2022/07/31 00:31:26;;;;;;;3.10;2.90;;;17.90;65.10;;;;;;612549;235;27198;-69
2022/07/31 00:33:53;;;;;;;3.62;2.67;;;17.90;65.60;;;;;;612566;233;26629;-69
2022/07/31 00:36:21;;;;;;;3.25;2.70;;;17.90;65.80;;;;;;612573;235;26576;-69
2022/07/31 00:38:49;;;;;;;3.22;2.92;;;17.90;65.80;;;;;;612537;235;26606;-69
2022/07/31 00:41:16;;;;;;;2.87;2.62;;;17.80;65.70;;;;;;612473;235;26602;-69
2022/07/31 00:43:44;;;;;;;5.82;3.00;;;17.80;66.70;;;;;;612540;235;26636;-69
2022/07/31 00:46:11;;;;;;;4.20;2.78;;;17.80;67.10;;;;;;612469;235;26909;-69
2022/07/31 00:48:38;;;;;;;3.03;2.83;;;17.80;67.70;;;;;;612507;235;26568;-69
2022/07/31 00:51:06;;;;;;;3.47;3.12;;;17.80;69.30;;;;;;612529;235;26849;-69
2022/07/31 00:53:33;;;;;;;5.07;3.30;;;17.80;69.30;;;;;;612535;235;26875;-69
2022/07/31 00:56:01;;;;;;;3.67;2.70;;;17.80;69.70;;;;;;613357;232;26675;-69
2022/07/31 00:58:29;;;;;;;4.45;2.83;;;17.80;69.70;;;;;;613881;234;26632;-68
2022/07/31 01:00:56;;;;;;;4.07;2.78;;;17.80;69.40;;;;;;613582;234;26582;-68
2022/07/31 01:03:23;;;;;;;3.00;2.80;;;17.70;69.00;;;;;;613457;234;26963;-68
2022/07/31 01:05:50;;;;;;;3.80;3.03;;;17.70;69.70;;;;;;613267;234;26623;-68
2022/07/31 01:08:17;;;;;;;3.87;2.85;;;17.70;70.80;;;;;;613163;235;26954;-69
2022/07/31 01:10:58;;;;;;;2.70;2.50;;;17.70;71.40;;;;;;613111;235;26620;-69
2022/07/31 01:13:29;;;;;;;3.10;2.85;;;17.70;71.40;;;;;;613169;233;26672;-69
2022/07/31 01:15:58;;;;;;;2.95;2.50;;;17.70;71.80;;;;;;612730;235;26640;-69
2022/07/31 01:18:24;;;;;;;3.40;2.87;;;17.70;71.80;;;;;;612885;235;26640;-69
2022/07/31 01:20:52;;;;;;;5.62;2.85;;;17.70;70.90;;;;;;612854;235;26870;-69
2022/07/31 01:23:37;;;;;;;4.72;3.12;;;17.70;72.70;;;;;;612779;235;26636;-69
2022/07/31 01:26:05;;;;;;;4.32;2.62;;;17.70;74.80;;;;;;608069;235;26657;-69
2022/07/31 01:28:45;;;;;;;3.67;3.10;;;17.70;73.40;;;;;;611453;235;26654;-69
2022/07/31 01:31:14;;;;;;;4.20;3.10;;;17.60;76.00;;;;;;612773;231;26643;-69
2022/07/31 01:33:42;;;;;;;3.53;3.10;;;17.50;75.90;;;;;;612379;232;26925;-69
2022/07/31 01:36:09;;;;;;;4.85;3.08;;;17.50;76.80;;;;;;612245;235;26602;-69
2022/07/31 01:38:36;;;;;;;3.67;3.28;;;17.50;76.60;;;;;;612251;235;26596;-69
2022/07/31 01:41:04;;;;;;;3.12;2.83;;;17.50;79.50;;;;;;612240;235;26617;-69
2022/07/31 01:43:32;;;;;;;3.87;2.87;;;17.50;79.50;;;;;;612287;235;26653;-69
2022/07/31 01:45:59;;;;;;;3.42;2.75;;;17.50;79.90;;;;;;612442;235;26652;-69
2022/07/31 01:48:27;;;;;;;3.65;3.35;;;17.40;79.10;;;;;;612423;235;26830;-69
2022/07/31 01:50:54;;;;;;;3.58;2.97;;;17.40;80.90;;;;;;612497;235;26617;-69
2022/07/31 01:53:21;;;;;;;3.22;2.92;;;17.40;82.60;;;;;;612486;235;26927;-69
2022/07/31 01:55:49;;;;;;;3.30;3.00;;;17.40;83.50;;;;;;612436;235;26607;-69
2022/07/31 01:58:16;;;;;;;3.12;2.80;;;17.40;84.50;;;;;;612466;235;27042;-69
2022/07/31 02:00:43;;;;;;;3.33;3.03;;;17.30;85.00;;;;;;612394;235;26628;-69
2022/07/31 02:03:11;;;;;;;3.87;3.58;;;17.30;85.90;;;;;;612398;235;26843;-69
2022/07/31 02:05:38;;;;;;;6.70;3.95;;;17.30;87.00;;;;;;612476;235;26588;-70
2022/07/31 02:08:05;;;;;;;5.87;3.80;;;17.30;85.30;;;;;;613558;232;26891;-69
2022/07/31 02:10:32;;;;;;;4.03;3.62;;;17.30;86.40;;;;;;613672;234;26637;-70
2022/07/31 02:13:01;;;;;;;4.10;3.62;;;17.20;87.30;;;;;;613352;234;26936;-69
2022/07/31 02:15:27;;;;;;;3.70;3.40;;;17.20;86.50;;;;;;613193;234;26583;-69
2022/07/31 02:17:54;;;;;;;3.75;3.45;;;17.30;90.00;;;;;;613138;234;26859;-69
2022/07/31 02:20:21;;;;;;;5.35;3.67;;;17.30;90.00;;;;;;613127;235;26611;-69
2022/07/31 02:22:49;;;;;;;5.82;4.00;;;17.20;90.00;;;;;;613094;235;27412;-67
2022/07/31 02:25:16;;;;;;;4.03;3.60;;;17.20;90.00;;;;;;613038;235;26623;-69
2022/07/31 02:27:44;;;;;;;4.03;3.72;;;17.10;91.10;;;;;;612805;235;26612;-68
2022/07/31 02:30:13;;;;;;;4.20;3.80;;;17.10;91.70;;;;;;612784;235;26639;-68
2022/07/31 02:32:40;;;;;;;5.60;3.60;;;17.10;91.70;;;;;;612805;234;26692;-68
2022/07/31 02:35:07;;;;;;;6.72;3.62;;;17.20;92.30;;;;;;612833;235;26650;-68
2022/07/31 02:37:34;;;;;;;4.60;3.50;;;17.20;91.60;;;;;;612767;235;26900;-68
2022/07/31 02:40:01;;;;;;;3.58;3.28;;;17.10;92.10;;;;;;613097;235;26610;-67
2022/07/31 02:42:29;;;;;;;3.67;3.33;;;17.10;92.50;;;;;;613150;235;27010;-67
2022/07/31 02:44:56;;;;;;;4.32;3.22;;;17.20;92.00;;;;;;612912;235;26604;-68
2022/07/31 02:47:23;;;;;;;3.35;3.05;;;17.20;91.70;;;;;;612653;235;26783;-68
2022/07/31 02:49:50;;;;;;;4.60;3.50;;;17.20;91.40;;;;;;612550;235;26579;-69
2022/07/31 02:52:17;;;;;;;3.65;3.28;;;17.20;91.30;;;;;;612453;235;26882;-69
2022/07/31 02:54:45;;;;;;;4.10;3.70;;;17.20;91.10;;;;;;612475;235;26632;-69
2022/07/31 02:57:12;;;;;;;4.22;3.87;;;17.10;90.60;;;;;;612588;235;26549;-68
2022/07/31 02:59:40;;;;;;;3.72;3.42;;;17.00;89.60;;;;;;612565;235;26576;-68
2022/07/31 03:02:08;;;;;;;3.95;3.22;;;17.00;90.70;;;;;;612522;235;26580;-68
2022/07/31 03:04:36;;;;;;;4.32;3.67;;;17.00;91.30;;;;;;612585;235;26593;-65
2022/07/31 03:07:04;;;;;;;5.87;3.60;;;17.00;90.00;;;;;;612502;235;26664;-69
2022/07/31 03:09:31;;;;;;;6.28;3.97;;;17.00;89.50;;;;;;612511;235;26879;-68
2022/07/31 03:11:58;;;;;;;8.52;3.83;;;17.00;90.20;;;;;;612550;235;26595;-69
2022/07/31 03:14:25;;;;;;;4.43;3.67;;;16.90;91.00;;;;;;612582;235;26854;-68
2022/07/31 03:16:52;;;;;;;5.37;3.25;;;16.90;90.80;;;;;;612577;235;26561;-69
2022/07/31 03:19:20;;;;;;;5.12;3.37;;;16.90;89.50;;;;;;613515;232;26809;-69
2022/07/31 03:21:47;;;;;;;4.45;3.50;;;16.90;88.70;;;;;;613829;234;26649;-69
2022/07/31 03:24:14;;;;;;;3.72;3.42;;;16.90;90.00;;;;;;613509;231;26876;-68
2022/07/31 03:26:41;;;;;;;4.03;3.35;;;16.80;89.80;;;;;;613457;234;26583;-68
2022/07/31 03:29:09;;;;;;;4.78;3.37;;;16.80;90.10;;;;;;613232;234;26580;-68
2022/07/31 03:31:36;;;;;;;7.40;3.15;;;16.80;90.80;;;;;;613073;235;26628;-68
2022/07/31 03:34:04;;;;;;;3.58;3.28;;;16.70;90.90;;;;;;613119;232;26663;-68
2022/07/31 03:36:31;;;;;;;4.37;3.40;;;16.70;90.30;;;;;;613037;235;26859;-68
2022/07/31 03:38:58;;;;;;;3.90;3.50;;;16.70;89.80;;;;;;612829;235;26631;-68
2022/07/31 03:41:25;;;;;;;4.10;3.15;;;16.70;90.80;;;;;;612805;235;26853;-68
2022/07/31 03:43:52;;;;;;;3.97;3.22;;;16.70;91.10;;;;;;612841;235;26644;-68
2022/07/31 03:46:20;;;;;;;3.53;3.25;;;16.70;91.10;;;;;;612710;235;26853;-68
2022/07/31 03:48:47;;;;;;;4.12;3.10;;;16.70;90.90;;;;;;612802;235;26642;-68
2022/07/31 03:51:14;;;;;;;3.78;3.47;;;16.70;91.10;;;;;;612813;235;27251;-68
2022/07/31 03:53:41;;;;;;;3.62;3.33;;;16.70;91.10;;;;;;612695;235;26675;-68
2022/07/31 03:56:08;;;;;;;3.67;3.30;;;16.70;91.20;;;;;;612573;235;26834;-68
2022/07/31 03:58:36;;;;;;;3.08;2.80;;;16.80;91.40;;;;;;612568;235;26580;-69
2022/07/31 04:01:04;;;;;;;4.32;3.22;;;16.90;91.40;;;;;;612462;235;26593;-68
2022/07/31 04:03:32;;;;;;;3.87;3.20;;;16.90;91.40;;;;;;612511;232;26603;-68
2022/07/31 04:06:00;;;;;;;3.58;3.28;;;16.90;91.20;;;;;;612504;235;26597;-68
2022/07/31 04:08:27;;;;;;;4.50;3.17;;;16.90;91.20;;;;;;612569;235;26602;-68
2022/07/31 04:10:55;;;;;;;4.57;3.65;;;17.00;91.30;;;;;;612516;235;26572;-68
2022/07/31 04:13:22;;;;;;;3.60;3.30;;;17.00;91.10;;;;;;612556;235;26818;-68
2022/07/31 04:15:49;;;;;;;4.43;3.12;;;17.00;91.20;;;;;;612507;235;26613;-68
2022/07/31 04:18:16;;;;;;;3.55;3.03;;;17.10;91.00;;;;;;612541;235;26949;-69
2022/07/31 04:20:43;;;;;;;4.85;3.55;;;17.00;90.90;;;;;;612571;235;26567;-68
2022/07/31 04:23:11;;;;;;;3.70;3.40;;;17.10;90.80;;;;;;612489;234;26859;-68
2022/07/31 04:25:38;;;;;;;4.47;3.62;;;17.10;90.70;;;;;;612580;235;26580;-68
2022/07/31 04:28:05;;;;;;;3.70;3.40;;;17.10;90.60;;;;;;612539;235;27128;-68
2022/07/31 04:30:32;;;;;;;3.67;3.12;;;17.20;90.60;;;;;;613194;232;26587;-68
2022/07/31 04:32:59;;;;;;;3.20;2.90;;;17.20;90.00;;;;;;613906;234;26869;-68
2022/07/31 04:35:27;;;;;;;3.60;3.25;;;17.30;88.30;;;;;;613589;234;26586;-68
2022/07/31 04:37:55;;;;;;;3.47;3.17;;;17.40;88.00;;;;;;613370;234;26587;-68
2022/07/31 04:40:25;;;;;;;3.30;3.10;;;17.40;87.80;;;;;;613256;234;26642;-68
2022/07/31 04:42:51;;;;;;;3.45;3.05;;;17.50;87.40;;;;;;613020;233;26646;-68
2022/07/31 04:45:18;;;;;;;5.95;3.90;;;17.50;87.40;;;;;;613096;235;26616;-68
2022/07/31 04:47:46;;;;;;;3.85;3.45;;;17.50;87.20;;;;;;613156;235;26631;-68
2022/07/31 04:50:13;;;;;;;6.30;3.45;;;17.50;87.10;;;;;;612883;235;27385;-68
2022/07/31 04:52:40;;;;;;;3.50;3.20;;;17.60;87.00;;;;;;612802;233;26665;-68
2022/07/31 04:55:08;;;;;;;3.55;3.20;;;17.70;86.90;;;;;;612856;230;26864;-71
2022/07/31 04:57:35;;;;;;;4.12;3.20;;;17.70;86.10;;;;;;612873;235;26666;-72
2022/07/31 05:00:02;;;;;;;3.33;3.03;;;17.80;86.60;;;;;;612876;235;26894;-72
2022/07/31 05:02:30;;;;;;;4.05;3.35;;;17.90;85.80;;;;;;612803;234;26675;-72
2022/07/31 05:04:57;;;;;;;3.72;3.20;;;17.90;84.70;;;;;;612762;235;26873;-72
2022/07/31 05:07:24;;;;;;;3.30;3.00;;;18.00;83.80;;;;;;612589;235;26599;-72
2022/07/31 05:09:51;;;;;;;3.30;3.10;;;18.10;83.20;;;;;;612531;235;26799;-72
2022/07/31 05:12:18;;;;;;;4.12;3.47;;;18.20;81.20;;;;;;612492;235;26597;-72
2022/07/31 05:14:46;;;;;;;3.92;3.08;;;18.30;81.40;;;;;;612554;235;26805;-72
2022/07/31 05:17:13;;;;;;;4.10;3.20;;;18.30;83.00;;;;;;612553;235;26572;-72
2022/07/31 05:19:41;;;;;;;3.35;3.05;;;18.40;83.20;;;;;;612491;235;27009;-72
2022/07/31 05:22:08;;;;;;;3.87;3.00;;;18.40;83.90;;;;;;612576;235;26580;-72
2022/07/31 05:24:35;;;;;;;3.45;3.15;;;18.60;83.90;;;;;;612581;235;26865;-72
2022/07/31 05:27:03;;;;;;;3.40;3.17;;;18.60;83.50;;;;;;612584;235;26568;-72
2022/07/31 05:29:30;;;;;;;3.40;3.10;;;18.70;83.10;;;;;;612633;235;27311;-72
2022/07/31 05:31:58;;;;;;;3.58;3.22;;;18.80;82.90;;;;;;612600;235;26587;-72
2022/07/31 05:34:25;;;;;;;3.40;3.10;;;18.90;82.10;;;;;;612611;235;26861;-72
2022/07/31 05:36:52;;;;;;;3.25;2.92;;;19.00;79.20;;;;;;612609;235;26546;-72
2022/07/31 05:39:20;;;;;;;3.97;3.10;;;19.10;79.10;;;;;;612620;235;26835;-72
2022/07/31 05:41:47;;;;;;;3.60;3.30;;;19.20;78.60;;;;;;612801;232;26555;-72
2022/07/31 05:44:14;;;;;;;3.15;2.85;;;19.30;79.20;;;;;;614037;234;26658;-72
2022/07/31 05:46:42;;;;;;;5.40;3.12;;;19.50;78.60;;;;;;613587;234;26599;-72
2022/07/31 05:49:10;;;;;;;2.80;2.60;;;19.60;78.80;;;;;;613463;234;26579;-72
2022/07/31 05:51:38;;;;;;;4.00;3.03;;;19.70;76.80;;;;;;613098;234;26641;-72
2022/07/31 05:54:05;;;;;;;3.20;2.90;;;19.70;76.80;;;;;;613006;233;26682;-72
2022/07/31 05:56:32;;;;;;;3.15;2.87;;;19.80;76.60;;;;;;613135;235;26628;-72
2022/07/31 05:58:59;;;;;;;2.83;2.62;;;19.80;76.00;;;;;;613123;235;26818;-72
2022/07/31 06:01:26;;;;;;;3.03;2.72;;;19.90;76.10;;;;;;612892;235;26622;-72
2022/07/31 06:03:54;;;;;;;3.20;2.90;;;20.00;76.10;;;;;;612829;235;26995;-72
2022/07/31 06:06:21;;;;;;;5.22;2.72;;;20.00;75.50;;;;;;612803;235;26669;-72
2022/07/31 06:08:48;;;;;;;3.22;2.92;;;20.10;75.30;;;;;;612833;235;26849;-72
2022/07/31 06:11:15;;;;;;;2.92;2.72;;;20.00;75.40;;;;;;612812;235;26624;-73
2022/07/31 06:13:42;;;;;;;4.72;3.33;;;20.10;75.60;;;;;;612727;234;27014;-72
2022/07/31 06:16:10;;;;;;;3.22;2.67;;;20.20;75.70;;;;;;612880;235;26632;-72
2022/07/31 06:18:38;;;;;;;4.18;3.10;;;20.50;75.20;;;;;;612558;235;26623;-73
2022/07/31 06:21:06;;;;;;;3.30;3.00;;;20.50;75.00;;;;;;612509;235;26589;-73
2022/07/31 06:23:33;;;;;;;3.03;2.75;;;20.70;75.10;;;;;;612533;235;26878;-72
2022/07/31 06:26:00;;;;;;;2.80;2.60;;;20.70;75.00;;;;;;612491;235;26958;-71
2022/07/31 06:28:27;;;;;;;3.53;2.87;;;20.80;74.60;;;;;;612576;235;26584;-72
2022/07/31 06:30:54;;;;;;;3.95;2.92;;;20.80;73.80;;;;;;612507;235;26842;-72
2022/07/31 06:33:22;;;;;;;3.87;3.10;;;20.80;74.10;;;;;;612490;235;26607;-72
2022/07/31 06:35:49;;;;;;;3.45;2.70;;;20.90;73.50;;;;;;612545;235;26807;-72
2022/07/31 06:38:16;;;;;;;3.30;3.00;;;21.00;72.50;;;;;;612556;235;26594;-72
2022/07/31 06:40:43;;;;;;;3.42;3.22;;;21.10;72.10;;;;;;612573;235;26879;-72
2022/07/31 06:43:10;;;;;;;4.32;3.47;;;21.30;71.50;;;;;;612559;235;26607;-72
2022/07/31 06:45:38;;;;;;;3.28;2.83;;;21.40;70.70;;;;;;612583;235;26794;-72
2022/07/31 06:48:06;;;;;;;3.22;2.95;;;21.50;69.30;;;;;;612370;235;26572;-72
2022/07/31 06:50:33;;;;;;;3.05;2.85;;;21.50;69.30;;;;;;612565;235;26586;-71
2022/07/31 06:53:01;;;;;;;4.32;3.12;;;21.90;67.80;;;;;;612507;232;26635;-71
2022/07/31 06:55:29;;;;;;;4.22;3.05;;;22.00;66.30;;;;;;614193;234;26599;-71
2022/07/31 06:57:56;;;;;;;3.72;2.70;;;21.90;66.20;;;;;;613675;234;26717;-72
2022/07/31 07:00:23;;;;;;;3.92;3.37;;;22.00;66.30;;;;;;613386;234;26588;-72
2022/07/31 07:02:50;;;;;;;2.90;2.65;;;22.00;65.60;;;;;;613227;234;26800;-73
2022/07/31 07:05:18;;;;;;;4.18;3.00;;;22.00;65.20;;;;;;613082;235;26622;-73
2022/07/31 07:07:45;;;;;;;3.15;2.90;;;22.00;64.80;;;;;;613084;235;26816;-72
2022/07/31 07:10:12;;;;;;;3.10;2.80;;;22.20;64.70;;;;;;613110;235;26644;-72
2022/07/31 07:12:39;;;;;;;3.33;3.03;;;22.20;62.90;;;;;;612809;235;27544;-72
2022/07/31 07:15:08;;;;;;;2.75;2.50;;;22.20;62.60;;;;;;612794;235;26845;-72
2022/07/31 07:17:35;;;;;;;2.95;2.70;;;22.20;61.10;;;;;;612815;235;26641;-72
2022/07/31 07:20:02;;;;;;;4.45;2.90;;;22.30;59.90;;;;;;612800;235;26952;-71
2022/07/31 07:22:31;;;;;;;2.53;2.33;;;22.30;59.50;;;;;;612814;234;26819;-74
2022/07/31 07:24:57;;;;;;;4.10;3.22;;;22.50;58.40;;;;;;612787;235;26631;-76
2022/07/31 07:27:25;;;;;;;5.93;2.90;;;22.70;58.10;;;;;;609782;235;26654;-72
2022/07/31 07:29:53;;;;;;;2.50;2.30;;;22.50;57.20;;;;;;609357;235;26694;-72
2022/07/31 07:32:24;;;;;;;4.07;2.72;;;22.50;57.20;;;;;;603284;236;26829;-71
2022/07/31 07:37:31;;;;;;;2.97;2.78;;;22.60;57.00;;;;;;605300;230;26599;-72
2022/07/31 07:39:59;;;;;;;3.33;2.75;;;22.60;56.90;;;;;;606355;236;26648;-71
2022/07/31 07:42:26;;;;;;;2.58;2.15;;;22.90;57.00;;;;;;603362;236;26846;-71
2022/07/31 07:44:53;;;;;;;2.50;2.30;;;22.80;56.70;;;;;;604949;236;26577;-72
2022/07/31 07:47:20;;;;;;;4.82;2.90;;;22.90;56.40;;;;;;604276;236;26846;-72
2022/07/31 07:49:48;;;;;;;2.67;2.42;;;23.00;56.30;;;;;;603209;238;26604;-72
2022/07/31 07:52:16;;;;;;;2.22;2.12;;;23.20;55.80;;;;;;604227;236;26602;-72
2022/07/31 07:54:44;;;;;;;2.47;2.30;;;23.20;55.80;;;;;;607712;230;26587;-71
2022/07/31 07:57:15;;;;;;;3.22;2.37;;;23.30;55.00;;;;;;603549;236;26605;-71
2022/07/31 07:59:42;;;;;;;2.22;2.08;;;23.30;55.00;;;;;;603892;236;26870;-72
2022/07/31 08:02:11;;;;;;;3.28;2.85;;;23.30;55.50;;;;;;602207;237;26578;-71
2022/07/31 08:04:38;;;;;;;2.42;2.10;;;23.40;55.20;;;;;;605449;236;27449;-71
2022/07/31 08:07:05;;;;;;;3.05;2.50;;;23.60;55.00;;;;;;609790;234;26767;-72
2022/07/31 08:09:33;;;;;;;2.12;2.03;;;23.50;55.00;;;;;;605193;235;26657;-70
2022/07/31 08:12:01;;;;;;;2.08;1.98;;;23.50;55.30;;;;;;603409;234;26604;-70
2022/07/31 08:14:29;;;;;;;3.35;2.28;;;23.50;55.00;;;;;;604738;234;26615;-71
2022/07/31 08:16:56;;;;;;;4.60;2.60;;;23.50;55.00;;;;;;604492;235;26879;-71
2022/07/31 08:19:23;;;;;;;3.28;2.20;;;23.30;55.40;;;;;;605326;235;26634;-72
2022/07/31 08:21:51;;;;;;;1.92;1.83;;;23.60;55.50;;;;;;603627;238;26824;-71
2022/07/31 08:24:18;;;;;;;2.35;2.22;;;23.50;55.40;;;;;;607533;235;26844;-70
2022/07/31 08:29:18;;;;;;;2.00;1.90;;;23.60;54.90;;;;;;604302;236;26573;-70
2022/07/31 08:31:46;;;;;;;2.30;2.20;;;23.50;55.20;;;;;;604858;236;26810;-70
2022/07/31 08:34:13;;;;;;;2.30;2.10;;;23.70;55.00;;;;;;601868;237;26613;-70
2022/07/31 08:36:40;;;;;;;2.20;2.10;;;23.90;54.90;;;;;;603643;238;27191;-70
2022/07/31 08:39:07;;;;;;;3.08;2.53;;;23.80;54.60;;;;;;602779;236;26586;-70
2022/07/31 08:41:37;;;;;;;2.50;2.30;;;24.00;55.30;;;;;;606894;235;26645;-71
2022/07/31 08:44:02;;;;;;;2.47;2.20;;;24.00;54.50;;;;;;605815;235;26616;-70
2022/07/31 08:46:30;;;;;;;3.25;2.83;;;24.00;54.50;;;;;;603852;235;26934;-69
2022/07/31 08:48:57;;;;;;;2.70;2.53;;;23.60;54.60;;;;;;605346;236;26590;-71
2022/07/31 08:51:24;;;;;;;2.50;2.20;;;23.90;54.30;;;;;;605167;236;26926;-70
2022/07/31 08:53:51;;;;;;;2.20;2.10;;;23.90;54.20;;;;;;601473;237;26616;-70
2022/07/31 08:56:19;;;;;;;2.00;1.90;;;24.20;54.80;;;;;;601538;239;26598;-70
2022/07/31 08:58:47;;;;;;;2.42;2.33;;;24.10;53.80;;;;;;601524;239;26826;-68
2022/07/31 09:01:15;;;;;;;2.50;2.40;;;24.10;53.40;;;;;;608226;235;26894;-71
2022/07/31 09:03:42;;;;;;;2.25;2.10;;;24.10;53.30;;;;;;604243;236;26606;-72
2022/07/31 09:06:10;;;;;;;2.37;2.17;;;24.20;53.20;;;;;;605512;235;26691;-70
2022/07/31 09:08:37;;;;;;;2.15;2.05;;;24.10;52.50;;;;;;606597;235;26654;-69
2022/07/31 09:11:04;;;;;;;2.55;2.35;;;24.20;52.70;;;;;;601643;239;26588;-70
2022/07/31 09:13:33;;;;;;;3.67;3.28;;;24.30;52.80;;;;;;609152;232;26831;-70
2022/07/31 09:15:59;;;;;;;5.35;4.85;;;24.30;52.60;;;;;;609935;236;26634;-69
2022/07/31 09:18:27;;;;;;;12.07;10.77;;;24.40;52.30;;;;;;611611;233;26634;-70
2022/07/31 09:20:55;;;;;;;16.37;13.70;;;24.40;52.90;;;;;;610984;235;26551;-68
2022/07/31 09:23:22;;;;;;;6.30;5.70;;;24.40;52.50;;;;;;605903;235;26860;-69
2022/07/31 09:25:54;;;;;;;5.72;4.57;;;24.70;52.30;;;;;;606673;234;26635;-68
2022/07/31 09:28:21;;;;;;;2.20;2.00;;;24.70;52.30;;;;;;611685;235;26582;-67
2022/07/31 09:30:53;;;;;;;2.78;2.60;;;24.70;51.70;;;;;;607220;235;26583;-67
2022/07/31 09:33:21;;;;;;;2.30;2.20;;;24.50;51.60;;;;;;605168;235;26874;-67
2022/07/31 09:35:48;;;;;;;2.20;2.00;;;24.50;51.60;;;;;;602728;237;26798;-67
2022/07/31 09:38:16;;;;;;;2.30;2.20;;;24.50;51.40;;;;;;608942;236;26585;-68
2022/07/31 09:40:43;;;;;;;1.85;1.75;;;24.60;51.80;;;;;;608049;235;26863;-67
2022/07/31 09:43:18;;;;;;;2.17;2.08;;;24.70;51.50;;;;;;605177;236;26613;-70
2022/07/31 09:45:45;;;;;;;2.33;2.12;;;24.90;51.20;;;;;;608833;235;26654;-70
2022/07/31 09:48:12;;;;;;;1.85;1.75;;;25.00;51.40;;;;;;601871;235;26635;-70
2022/07/31 09:50:54;;;;;;;1.98;1.87;;;24.90;51.30;;;;;;606576;236;26767;-70
2022/07/31 09:53:44;;;;;;;2.08;1.80;;;25.10;51.40;;;;;;605601;236;27255;-70
2022/07/31 09:56:11;;;;;;;2.62;2.30;;;25.00;51.20;;;;;;602202;235;26577;-70
2022/07/31 09:58:38;;;;;;;2.55;2.20;;;24.90;51.40;;;;;;601667;235;26906;-69
2022/07/31 10:01:06;;;;;;;1.70;1.65;;;25.00;51.50;;;;;;604580;235;26584;-69
2022/07/31 10:03:32;;;;;;;3.05;2.45;;;25.10;51.00;;;;;;608127;235;26827;-71
2022/07/31 10:06:01;;;;;;;3.95;2.33;;;25.30;50.40;;;;;;607555;235;26601;-69
2022/07/31 10:08:28;;;;;;;5.25;2.87;;;25.30;50.30;;;;;;604597;234;26591;-68
2022/07/31 10:10:55;;;;;;;4.57;3.15;;;25.40;50.80;;;;;;603274;236;26581;-71
2022/07/31 10:13:22;;;;;;;90.43;19.87;;;25.50;50.30;;;;;;609981;234;26865;-71
2022/07/31 10:15:49;;;;;;;87.80;24.35;;;25.60;50.00;;;;;;607077;236;26542;-70
2022/07/31 10:18:17;;;;;;;53.70;13.30;;;25.60;49.80;;;;;;603952;237;26579;-68
2022/07/31 10:20:45;;;;;;;13.13;4.68;;;25.70;50.30;;;;;;604516;235;26578;-67
2022/07/31 10:23:15;;;;;;;5.37;3.90;;;25.60;50.20;;;;;;604070;238;26610;-67
2022/07/31 10:25:45;;;;;;;11.88;4.97;;;25.60;48.60;;;;;;604579;238;26563;-67
2022/07/31 10:28:13;;;;;;;5.57;2.97;;;25.60;48.60;;;;;;604828;235;26585;-67
2022/07/31 10:30:40;;;;;;;4.10;2.60;;;26.00;48.80;;;;;;606036;236;26555;-67
2022/07/31 10:33:08;;;;;;;3.10;2.53;;;26.00;48.80;;;;;;605716;237;26620;-67
2022/07/31 10:35:35;;;;;;;1.77;1.65;;;26.10;48.80;;;;;;605495;237;26694;-68
2022/07/31 10:38:03;;;;;;;4.80;3.37;;;26.20;49.00;;;;;;604883;237;26905;-67
2022/07/31 10:40:35;;;;;;;2.58;2.37;;;26.30;48.90;;;;;;604575;238;26555;-67
2022/07/31 10:43:19;;;;;;;2.28;2.17;;;26.30;48.70;;;;;;604919;238;26628;-67
2022/07/31 10:45:45;;;;;;;2.12;2.03;;;26.30;48.30;;;;;;605180;238;26639;-67
2022/07/31 10:48:13;;;;;;;2.42;2.22;;;26.50;48.10;;;;;;604977;238;26558;-68
2022/07/31 10:50:41;;;;;;;1.90;1.80;;;26.70;47.80;;;;;;604960;237;26574;-67
2022/07/31 10:53:08;;;;;;;1.90;1.52;;;26.70;47.80;;;;;;605050;237;26636;-67
2022/07/31 10:55:36;;;;;;;3.05;2.33;;;26.80;47.50;;;;;;605021;237;26577;-65
2022/07/31 10:58:10;;;;;;;2.08;1.98;;;27.10;47.20;;;;;;605013;237;26815;-65
2022/07/31 11:00:38;;;;;;;2.12;2.03;;;27.20;46.90;;;;;;605328;238;26618;-65
2022/07/31 11:03:15;;;;;;;2.65;2.47;;;27.30;46.90;;;;;;605400;235;26867;-65
2022/07/31 11:05:54;;;;;;;2.35;2.15;;;27.50;46.10;;;;;;605043;238;26586;-65
2022/07/31 11:08:21;;;;;;;2.33;2.12;;;27.50;46.10;;;;;;604793;237;26595;-65
2022/07/31 11:10:49;;;;;;;1.90;1.80;;;27.80;45.70;;;;;;604747;235;26575;-65
2022/07/31 11:13:16;;;;;;;3.03;2.20;;;27.80;45.70;;;;;;604715;237;26619;-65
2022/07/31 11:15:44;;;;;;;2.90;2.70;;;27.70;46.00;;;;;;604732;238;26829;-65
2022/07/31 11:18:12;;;;;;;2.90;2.70;;;27.60;46.10;;;;;;604741;238;26579;-65
2022/07/31 11:20:45;;;;;;;2.80;2.60;;;27.60;46.20;;;;;;604774;237;26599;-65
2022/07/31 11:23:08;;;;;;;1.90;1.80;;;27.90;45.50;;;;;;604319;238;26599;-65
2022/07/31 11:25:36;;;;;;;2.55;1.90;;;28.30;46.10;;;;;;604670;237;26587;-65
2022/07/31 11:28:12;;;;;;;2.90;2.35;;;28.30;46.10;;;;;;604694;237;26582;-65
2022/07/31 11:30:49;;;;;;;2.20;2.10;;;28.20;44.30;;;;;;604732;238;26592;-65
2022/07/31 11:33:15;;;;;;;1.83;1.62;;;28.10;44.30;;;;;;604798;238;26593;-65
2022/07/31 11:35:42;;;;;;;2.37;2.28;;;28.30;44.20;;;;;;605100;238;26546;-65
2022/07/31 11:38:09;;;;;;;2.92;2.40;;;27.80;44.00;;;;;;605111;238;26801;-65
2022/07/31 11:40:37;;;;;;;2.20;2.08;;;27.80;45.00;;;;;;606146;235;26549;-65
2022/07/31 11:43:04;;;;;;;2.55;2.35;;;27.90;44.70;;;;;;606262;236;26844;-65
2022/07/31 11:45:31;;;;;;;2.95;2.58;;;27.80;45.00;;;;;;605711;237;26578;-65
2022/07/31 11:47:58;;;;;;;2.80;2.42;;;27.50;45.10;;;;;;605647;237;27267;-65
2022/07/31 11:50:29;;;;;;;2.10;2.00;;;27.60;45.20;;;;;;604819;235;26567;-67
2022/07/31 11:52:53;;;;;;;2.87;2.55;;;27.70;45.30;;;;;;602415;238;26892;-66
2022/07/31 11:55:20;;;;;;;2.12;2.03;;;27.80;45.20;;;;;;602726;235;26600;-66
2022/07/31 11:57:47;;;;;;;2.33;2.10;;;28.40;44.70;;;;;;607607;235;26578;-66
2022/07/31 12:00:14;;;;;;;3.08;2.80;;;28.50;44.30;;;;;;601970;239;26576;-66
2022/07/31 12:02:41;;;;;;;2.60;2.40;;;28.30;44.40;;;;;;601938;239;26852;-66
2022/07/31 12:05:11;;;;;;;3.20;2.90;;;28.10;44.70;;;;;;601763;239;26582;-66
2022/07/31 12:07:36;;;;;;;5.00;2.50;;;28.10;44.30;;;;;;608331;236;26789;-65
2022/07/31 12:10:04;;;;;;;2.75;2.53;;;28.20;44.40;;;;;;605079;236;26581;-66
2022/07/31 12:12:30;;;;;;;4.43;3.08;;;28.40;44.50;;;;;;605774;235;26602;-65
2022/07/31 12:14:58;;;;;;;3.95;3.12;;;28.80;43.90;;;;;;605115;236;26587;-65
2022/07/31 12:17:26;;;;;;;2.45;2.30;;;29.10;42.70;;;;;;603298;235;26599;-64
2022/07/31 12:19:54;;;;;;;2.55;2.37;;;29.10;42.90;;;;;;602796;238;26585;-65
2022/07/31 12:22:22;;;;;;;3.22;2.08;;;28.80;43.10;;;;;;600927;238;26578;-64
2022/07/31 12:24:51;;;;;;;2.70;2.50;;;28.30;43.40;;;;;;604629;237;26589;-64
2022/07/31 12:27:18;;;;;;;2.60;2.40;;;28.30;43.40;;;;;;608019;236;26656;-64
2022/07/31 12:29:45;;;;;;;2.42;2.28;;;27.90;43.80;;;;;;604881;235;27319;-65
2022/07/31 12:32:12;;;;;;;2.33;2.22;;;27.80;43.90;;;;;;604665;237;26579;-65
2022/07/31 12:34:40;;;;;;;2.35;2.25;;;27.70;43.80;;;;;;600702;238;27126;-65
2022/07/31 12:37:07;;;;;;;2.15;1.98;;;27.80;44.00;;;;;;603835;233;26586;-66
2022/07/31 12:39:34;;;;;;;2.80;2.30;;;28.20;43.90;;;;;;601615;235;26841;-65
2022/07/31 12:42:02;;;;;;;5.25;2.80;;;28.30;44.10;;;;;;601530;239;26597;-65
2022/07/31 12:44:29;;;;;;;3.15;2.05;;;28.20;44.00;;;;;;601455;239;26602;-65
2022/07/31 12:46:57;;;;;;;2.90;2.20;;;27.60;45.50;;;;;;601683;237;26831;-65
2022/07/31 12:49:24;;;;;;;2.60;2.40;;;27.50;45.50;;;;;;601689;237;26826;-65
2022/07/31 12:51:51;;;;;;;2.50;2.30;;;27.20;46.00;;;;;;602407;237;26577;-65
2022/07/31 12:54:19;;;;;;;2.50;2.30;;;27.00;46.60;;;;;;603005;237;26826;-65